sensor_id;sensor_type;location;lat;lon;timestamp;temperature;humidity
19292;DHT22;9779;51.756;7.450;2024-02-23T00:02:15;6.60;99.90
19292;DHT22;9779;51.756;7.450;2024-02-23T00:04:41;6.50;1.00
19292;DHT22;9779;51.756;7.450;2024-02-23T00:07:07;6.40;1.00
19292;DHT22;9779;51.756;7.450;2024-02-23T00:09:33;6.30;99.90
19292;DHT22;9779;51.756;7.450;2024-02-23T00:11:59;6.30;1.00
19292;DHT22;9779;51.756;7.450;2024-02-23T00:14:24;6.00;1.00
19292;DHT22;9779;51.756;7.450;2024-02-23T00:16:50;5.90;1.00
19292;DHT22;9779;51.756;7.450;2024-02-23T00:19:16;5.90;1.00
19292;DHT22;9779;51.756;7.450;2024-02-23T00:21:44;5.70;1.00
19292;DHT22;9779;51.756;7.450;2024-02-23T00:24:13;5.70;1.00
19292;DHT22;9779;51.756;7.450;2024-02-23T00:26:38;5.70;1.00
19292;DHT22;9779;51.756;7.450;2024-02-23T00:29:04;5.60;1.00
19292;DHT22;9779;51.756;7.450;2024-02-23T00:31:30;5.50;1.00
19292;DHT22;9779;51.756;7.450;2024-02-23T00:33:55;5.50;1.00
19292;DHT22;9779;51.756;7.450;2024-02-23T00:36:21;5.50;1.00
19292;DHT22;9779;51.756;7.450;2024-02-23T00:38:47;5.50;1.00
19292;DHT22;9779;51.756;7.450;2024-02-23T00:41:12;5.60;1.00
19292;DHT22;9779;51.756;7.450;2024-02-23T00:43:41;5.50;1.00
19292;DHT22;9779;51.756;7.450;2024-02-23T00:46:08;5.40;1.00
19292;DHT22;9779;51.756;7.450;2024-02-23T00:48:33;5.40;1.00
19292;DHT22;9779;51.756;7.450;2024-02-23T00:50:59;5.30;1.00
19292;DHT22;9779;51.756;7.450;2024-02-23T00:53:25;5.30;1.00
19292;DHT22;9779;51.756;7.450;2024-02-23T00:55:51;5.30;1.00
19292;DHT22;9779;51.756;7.450;2024-02-23T00:58:16;5.20;1.00
19292;DHT22;9779;51.756;7.450;2024-02-23T01:00:42;5.20;1.00
19292;DHT22;9779;51.756;7.450;2024-02-23T01:03:08;5.20;1.00
19292;DHT22;9779;51.756;7.450;2024-02-23T01:05:33;5.20;1.00
19292;DHT22;9779;51.756;7.450;2024-02-23T01:07:59;5.20;1.00
19292;DHT22;9779;51.756;7.450;2024-02-23T01:10:24;5.20;1.00
19292;DHT22;9779;51.756;7.450;2024-02-23T01:12:50;5.10;1.00
19292;DHT22;9779;51.756;7.450;2024-02-23T01:15:16;5.20;1.00
19292;DHT22;9779;51.756;7.450;2024-02-23T01:17:41;5.20;1.00
19292;DHT22;9779;51.756;7.450;2024-02-23T01:20:07;5.10;1.00
19292;DHT22;9779;51.756;7.450;2024-02-23T01:22:33;5.20;1.00
19292;DHT22;9779;51.756;7.450;2024-02-23T01:24:58;5.20;1.00
19292;DHT22;9779;51.756;7.450;2024-02-23T01:27:24;5.20;1.00
19292;DHT22;9779;51.756;7.450;2024-02-23T01:29:49;5.20;1.00
19292;DHT22;9779;51.756;7.450;2024-02-23T01:32:15;5.20;1.00
19292;DHT22;9779;51.756;7.450;2024-02-23T01:34:41;5.20;1.00
19292;DHT22;9779;51.756;7.450;2024-02-23T01:37:06;5.20;1.00
19292;DHT22;9779;51.756;7.450;2024-02-23T01:39:32;5.30;1.00
19292;DHT22;9779;51.756;7.450;2024-02-23T01:41:57;5.30;1.00
19292;DHT22;9779;51.756;7.450;2024-02-23T01:44:24;5.30;1.00
19292;DHT22;9779;51.756;7.450;2024-02-23T01:46:50;5.30;1.00
19292;DHT22;9779;51.756;7.450;2024-02-23T01:49:16;5.30;1.00
19292;DHT22;9779;51.756;7.450;2024-02-23T01:51:42;5.30;1.00
19292;DHT22;9779;51.756;7.450;2024-02-23T01:54:08;5.30;1.00
19292;DHT22;9779;51.756;7.450;2024-02-23T01:56:34;5.30;1.00
19292;DHT22;9779;51.756;7.450;2024-02-23T01:59:02;5.20;1.00
19292;DHT22;9779;51.756;7.450;2024-02-23T02:01:30;5.20;1.00
19292;DHT22;9779;51.756;7.450;2024-02-23T02:03:56;5.20;99.90
19292;DHT22;9779;51.756;7.450;2024-02-23T02:06:22;5.30;99.90
19292;DHT22;9779;51.756;7.450;2024-02-23T02:08:48;5.30;99.90
19292;DHT22;9779;51.756;7.450;2024-02-23T02:11:14;5.30;99.90
19292;DHT22;9779;51.756;7.450;2024-02-23T02:13:40;5.30;99.90
19292;DHT22;9779;51.756;7.450;2024-02-23T02:16:06;5.30;99.90
19292;DHT22;9779;51.756;7.450;2024-02-23T02:18:32;5.30;1.00
19292;DHT22;9779;51.756;7.450;2024-02-23T02:20:58;5.30;1.00
19292;DHT22;9779;51.756;7.450;2024-02-23T02:23:24;5.40;1.00
19292;DHT22;9779;51.756;7.450;2024-02-23T02:25:55;5.40;1.00
19292;DHT22;9779;51.756;7.450;2024-02-23T02:28:21;5.40;1.00
19292;DHT22;9779;51.756;7.450;2024-02-23T02:30:48;5.40;1.00
19292;DHT22;9779;51.756;7.450;2024-02-23T02:33:13;5.40;1.00
19292;DHT22;9779;51.756;7.450;2024-02-23T02:35:39;5.40;99.90
19292;DHT22;9779;51.756;7.450;2024-02-23T02:38:04;5.40;99.90
19292;DHT22;9779;51.756;7.450;2024-02-23T02:40:30;5.50;50.00
19292;DHT22;9779;51.756;7.450;2024-02-23T02:42:57;5.50;1.00
19292;DHT22;9779;51.756;7.450;2024-02-23T02:45:23;5.50;99.90
19292;DHT22;9779;51.756;7.450;2024-02-23T02:47:49;5.60;99.90
19292;DHT22;9779;51.756;7.450;2024-02-23T02:50:15;5.60;99.90
19292;DHT22;9779;51.756;7.450;2024-02-23T02:52:41;5.60;1.00
19292;DHT22;9779;51.756;7.450;2024-02-23T02:55:07;5.60;1.00
19292;DHT22;9779;51.756;7.450;2024-02-23T02:57:33;5.50;1.00
19292;DHT22;9779;51.756;7.450;2024-02-23T02:59:59;5.60;1.00
19292;DHT22;9779;51.756;7.450;2024-02-23T03:02:24;5.60;99.90
19292;DHT22;9779;51.756;7.450;2024-02-23T03:04:50;5.60;1.00
19292;DHT22;9779;51.756;7.450;2024-02-23T03:07:17;5.60;99.90
19292;DHT22;9779;51.756;7.450;2024-02-23T03:09:42;5.60;1.00
19292;DHT22;9779;51.756;7.450;2024-02-23T03:12:08;5.60;1.00
19292;DHT22;9779;51.756;7.450;2024-02-23T03:14:34;5.50;1.00
19292;DHT22;9779;51.756;7.450;2024-02-23T03:17:00;5.50;99.90
19292;DHT22;9779;51.756;7.450;2024-02-23T03:19:25;5.50;99.90
19292;DHT22;9779;51.756;7.450;2024-02-23T03:21:52;5.50;1.00
19292;DHT22;9779;51.756;7.450;2024-02-23T03:24:18;5.50;1.00
19292;DHT22;9779;51.756;7.450;2024-02-23T03:26:43;5.50;1.00
19292;DHT22;9779;51.756;7.450;2024-02-23T03:29:10;5.40;1.00
19292;DHT22;9779;51.756;7.450;2024-02-23T03:31:37;5.50;3.00
19292;DHT22;9779;51.756;7.450;2024-02-23T03:34:03;5.50;99.90
19292;DHT22;9779;51.756;7.450;2024-02-23T03:36:28;5.50;1.00
19292;DHT22;9779;51.756;7.450;2024-02-23T03:38:54;5.40;54.00
19292;DHT22;9779;51.756;7.450;2024-02-23T03:41:19;5.50;99.90
19292;DHT22;9779;51.756;7.450;2024-02-23T03:43:45;5.50;99.90
19292;DHT22;9779;51.756;7.450;2024-02-23T03:46:11;5.40;1.00
19292;DHT22;9779;51.756;7.450;2024-02-23T03:48:37;5.40;1.00
19292;DHT22;9779;51.756;7.450;2024-02-23T03:51:03;5.40;1.00
19292;DHT22;9779;51.756;7.450;2024-02-23T03:53:30;5.40;1.00
19292;DHT22;9779;51.756;7.450;2024-02-23T03:55:57;5.40;99.90
19292;DHT22;9779;51.756;7.450;2024-02-23T03:58:22;5.40;1.00
19292;DHT22;9779;51.756;7.450;2024-02-23T04:00:48;5.40;99.90
19292;DHT22;9779;51.756;7.450;2024-02-23T04:03:13;5.40;99.90
19292;DHT22;9779;51.756;7.450;2024-02-23T04:05:39;5.40;99.90
19292;DHT22;9779;51.756;7.450;2024-02-23T04:08:05;5.40;99.90
19292;DHT22;9779;51.756;7.450;2024-02-23T04:10:32;5.40;1.00
19292;DHT22;9779;51.756;7.450;2024-02-23T04:12:58;5.40;99.90
19292;DHT22;9779;51.756;7.450;2024-02-23T04:15:24;5.40;99.90
19292;DHT22;9779;51.756;7.450;2024-02-23T04:17:49;5.40;99.90
19292;DHT22;9779;51.756;7.450;2024-02-23T04:20:15;5.40;99.90
19292;DHT22;9779;51.756;7.450;2024-02-23T04:22:40;5.40;1.00
19292;DHT22;9779;51.756;7.450;2024-02-23T04:25:06;5.40;1.00
19292;DHT22;9779;51.756;7.450;2024-02-23T04:27:32;5.40;99.90
19292;DHT22;9779;51.756;7.450;2024-02-23T04:29:57;5.40;99.90
19292;DHT22;9779;51.756;7.450;2024-02-23T04:32:23;5.40;1.00
19292;DHT22;9779;51.756;7.450;2024-02-23T04:34:49;5.40;99.90
19292;DHT22;9779;51.756;7.450;2024-02-23T04:37:14;5.40;99.90
19292;DHT22;9779;51.756;7.450;2024-02-23T04:39:40;5.40;99.90
19292;DHT22;9779;51.756;7.450;2024-02-23T04:42:07;5.40;1.00
19292;DHT22;9779;51.756;7.450;2024-02-23T04:44:34;5.50;39.10
19292;DHT22;9779;51.756;7.450;2024-02-23T04:47:00;5.50;1.00
19292;DHT22;9779;51.756;7.450;2024-02-23T04:49:26;5.50;1.00
19292;DHT22;9779;51.756;7.450;2024-02-23T04:51:51;5.50;1.00
19292;DHT22;9779;51.756;7.450;2024-02-23T04:54:17;5.50;1.00
19292;DHT22;9779;51.756;7.450;2024-02-23T04:56:42;5.50;1.00
19292;DHT22;9779;51.756;7.450;2024-02-23T04:59:08;5.50;1.00
19292;DHT22;9779;51.756;7.450;2024-02-23T05:01:37;5.50;1.00
19292;DHT22;9779;51.756;7.450;2024-02-23T05:04:03;5.50;1.00
19292;DHT22;9779;51.756;7.450;2024-02-23T05:06:29;5.50;1.00
19292;DHT22;9779;51.756;7.450;2024-02-23T05:08:55;5.40;1.00
19292;DHT22;9779;51.756;7.450;2024-02-23T05:11:20;5.50;1.00
19292;DHT22;9779;51.756;7.450;2024-02-23T05:13:47;5.50;1.00
19292;DHT22;9779;51.756;7.450;2024-02-23T05:16:16;5.50;1.00
19292;DHT22;9779;51.756;7.450;2024-02-23T05:18:43;5.50;99.90
19292;DHT22;9779;51.756;7.450;2024-02-23T05:21:09;5.50;1.00
19292;DHT22;9779;51.756;7.450;2024-02-23T05:23:35;5.50;1.00
19292;DHT22;9779;51.756;7.450;2024-02-23T05:26:01;5.50;1.00
19292;DHT22;9779;51.756;7.450;2024-02-23T05:28:26;5.50;1.00
19292;DHT22;9779;51.756;7.450;2024-02-23T05:30:54;5.50;1.00
19292;DHT22;9779;51.756;7.450;2024-02-23T05:33:19;5.50;1.00
19292;DHT22;9779;51.756;7.450;2024-02-23T05:35:46;5.50;1.00
19292;DHT22;9779;51.756;7.450;2024-02-23T05:38:14;5.50;99.90
19292;DHT22;9779;51.756;7.450;2024-02-23T05:40:40;5.50;99.90
19292;DHT22;9779;51.756;7.450;2024-02-23T05:43:05;5.40;99.90
19292;DHT22;9779;51.756;7.450;2024-02-23T05:45:31;5.50;90.30
19292;DHT22;9779;51.756;7.450;2024-02-23T05:47:57;5.40;99.90
19292;DHT22;9779;51.756;7.450;2024-02-23T05:50:22;5.40;1.00
19292;DHT22;9779;51.756;7.450;2024-02-23T05:52:48;5.40;99.90
19292;DHT22;9779;51.756;7.450;2024-02-23T05:55:14;5.40;99.90
19292;DHT22;9779;51.756;7.450;2024-02-23T05:57:40;5.40;99.90
19292;DHT22;9779;51.756;7.450;2024-02-23T06:00:07;5.40;99.90
19292;DHT22;9779;51.756;7.450;2024-02-23T06:02:36;5.40;99.90
19292;DHT22;9779;51.756;7.450;2024-02-23T06:05:02;5.30;91.00
19292;DHT22;9779;51.756;7.450;2024-02-23T06:07:29;5.40;1.00
19292;DHT22;9779;51.756;7.450;2024-02-23T06:09:58;5.40;1.00
19292;DHT22;9779;51.756;7.450;2024-02-23T06:12:24;5.30;67.30
19292;DHT22;9779;51.756;7.450;2024-02-23T06:14:51;5.30;1.00
19292;DHT22;9779;51.756;7.450;2024-02-23T06:17:16;5.30;1.00
19292;DHT22;9779;51.756;7.450;2024-02-23T06:19:42;5.30;1.00
19292;DHT22;9779;51.756;7.450;2024-02-23T06:22:08;5.30;1.00
19292;DHT22;9779;51.756;7.450;2024-02-23T06:24:36;5.30;1.00
19292;DHT22;9779;51.756;7.450;2024-02-23T06:27:02;5.30;1.00
19292;DHT22;9779;51.756;7.450;2024-02-23T06:29:29;5.30;1.00
19292;DHT22;9779;51.756;7.450;2024-02-23T06:31:55;5.30;1.00
19292;DHT22;9779;51.756;7.450;2024-02-23T06:34:21;5.30;1.00
19292;DHT22;9779;51.756;7.450;2024-02-23T06:36:46;5.20;1.00
19292;DHT22;9779;51.756;7.450;2024-02-23T06:39:12;5.20;99.90
19292;DHT22;9779;51.756;7.450;2024-02-23T06:41:38;5.20;99.90
19292;DHT22;9779;51.756;7.450;2024-02-23T06:44:07;5.20;99.90
19292;DHT22;9779;51.756;7.450;2024-02-23T06:46:32;5.20;99.90
19292;DHT22;9779;51.756;7.450;2024-02-23T06:48:58;5.20;99.90
19292;DHT22;9779;51.756;7.450;2024-02-23T06:51:23;5.20;99.90
19292;DHT22;9779;51.756;7.450;2024-02-23T06:53:49;5.20;99.90
19292;DHT22;9779;51.756;7.450;2024-02-23T06:56:15;5.20;99.90
19292;DHT22;9779;51.756;7.450;2024-02-23T06:58:40;5.20;99.90
19292;DHT22;9779;51.756;7.450;2024-02-23T07:01:06;5.30;99.90
19292;DHT22;9779;51.756;7.450;2024-02-23T07:03:32;5.30;1.00
19292;DHT22;9779;51.756;7.450;2024-02-23T07:05:58;5.30;91.60
19292;DHT22;9779;51.756;7.450;2024-02-23T07:08:24;5.30;1.00
19292;DHT22;9779;51.756;7.450;2024-02-23T07:10:49;5.40;1.00
19292;DHT22;9779;51.756;7.450;2024-02-23T07:13:15;5.40;1.00
19292;DHT22;9779;51.756;7.450;2024-02-23T07:15:42;5.40;1.00
19292;DHT22;9779;51.756;7.450;2024-02-23T07:18:08;5.40;1.00
19292;DHT22;9779;51.756;7.450;2024-02-23T07:20:35;5.30;1.00
19292;DHT22;9779;51.756;7.450;2024-02-23T07:23:01;5.30;1.00
19292;DHT22;9779;51.756;7.450;2024-02-23T07:25:27;5.30;1.00
19292;DHT22;9779;51.756;7.450;2024-02-23T07:27:52;5.30;99.90
19292;DHT22;9779;51.756;7.450;2024-02-23T07:30:18;5.30;99.90
19292;DHT22;9779;51.756;7.450;2024-02-23T07:32:44;5.30;99.90
19292;DHT22;9779;51.756;7.450;2024-02-23T07:35:10;5.30;99.90
19292;DHT22;9779;51.756;7.450;2024-02-23T07:37:39;5.30;99.90
19292;DHT22;9779;51.756;7.450;2024-02-23T07:40:05;5.30;99.90
19292;DHT22;9779;51.756;7.450;2024-02-23T07:42:32;5.30;99.90
19292;DHT22;9779;51.756;7.450;2024-02-23T07:44:57;5.30;99.90
19292;DHT22;9779;51.756;7.450;2024-02-23T07:47:24;5.40;88.30
19292;DHT22;9779;51.756;7.450;2024-02-23T07:49:49;5.50;1.00
19292;DHT22;9779;51.756;7.450;2024-02-23T07:52:15;5.50;1.00
19292;DHT22;9779;51.756;7.450;2024-02-23T07:54:41;5.50;1.00
19292;DHT22;9779;51.756;7.450;2024-02-23T07:57:07;5.60;99.90
19292;DHT22;9779;51.756;7.450;2024-02-23T07:59:32;5.60;99.90
19292;DHT22;9779;51.756;7.450;2024-02-23T08:01:58;5.60;99.90
19292;DHT22;9779;51.756;7.450;2024-02-23T08:04:24;5.90;99.90
19292;DHT22;9779;51.756;7.450;2024-02-23T08:06:49;6.10;99.90
19292;DHT22;9779;51.756;7.450;2024-02-23T08:09:16;6.10;99.90
19292;DHT22;9779;51.756;7.450;2024-02-23T08:11:43;6.00;99.90
19292;DHT22;9779;51.756;7.450;2024-02-23T08:14:08;6.00;1.00
19292;DHT22;9779;51.756;7.450;2024-02-23T08:16:34;6.00;99.90
19292;DHT22;9779;51.756;7.450;2024-02-23T08:19:00;6.00;99.90
19292;DHT22;9779;51.756;7.450;2024-02-23T08:21:25;6.00;41.20
19292;DHT22;9779;51.756;7.450;2024-02-23T08:23:54;6.00;1.00
19292;DHT22;9779;51.756;7.450;2024-02-23T08:26:19;5.90;1.00
19292;DHT22;9779;51.756;7.450;2024-02-23T08:28:45;5.90;1.00
19292;DHT22;9779;51.756;7.450;2024-02-23T08:31:11;6.00;1.00
19292;DHT22;9779;51.756;7.450;2024-02-23T08:33:36;6.00;40.30
19292;DHT22;9779;51.756;7.450;2024-02-23T08:36:02;6.00;1.00
19292;DHT22;9779;51.756;7.450;2024-02-23T08:38:31;6.10;1.00
19292;DHT22;9779;51.756;7.450;2024-02-23T08:40:57;6.10;1.00
19292;DHT22;9779;51.756;7.450;2024-02-23T08:43:24;6.10;1.00
19292;DHT22;9779;51.756;7.450;2024-02-23T08:45:49;6.20;1.00
19292;DHT22;9779;51.756;7.450;2024-02-23T08:48:15;6.20;1.00
19292;DHT22;9779;51.756;7.450;2024-02-23T08:50:41;6.20;1.00
19292;DHT22;9779;51.756;7.450;2024-02-23T08:53:07;6.30;1.00
19292;DHT22;9779;51.756;7.450;2024-02-23T08:55:32;6.40;1.00
19292;DHT22;9779;51.756;7.450;2024-02-23T08:57:58;6.40;1.00
19292;DHT22;9779;51.756;7.450;2024-02-23T09:00:24;6.50;1.00
19292;DHT22;9779;51.756;7.450;2024-02-23T09:02:50;6.50;1.00
19292;DHT22;9779;51.756;7.450;2024-02-23T09:05:15;6.60;99.90
19292;DHT22;9779;51.756;7.450;2024-02-23T09:07:41;6.60;99.90
19292;DHT22;9779;51.756;7.450;2024-02-23T09:10:08;6.70;99.90
19292;DHT22;9779;51.756;7.450;2024-02-23T09:12:34;6.80;99.90
19292;DHT22;9779;51.756;7.450;2024-02-23T09:14:59;6.80;99.90
19292;DHT22;9779;51.756;7.450;2024-02-23T09:17:25;6.80;1.90
19292;DHT22;9779;51.756;7.450;2024-02-23T09:19:51;6.90;48.90
19292;DHT22;9779;51.756;7.450;2024-02-23T09:22:17;6.80;1.00
19292;DHT22;9779;51.756;7.450;2024-02-23T09:24:42;6.70;1.00
19292;DHT22;9779;51.756;7.450;2024-02-23T09:27:08;6.70;1.00
19292;DHT22;9779;51.756;7.450;2024-02-23T09:29:34;6.70;1.00
19292;DHT22;9779;51.756;7.450;2024-02-23T09:32:00;6.70;1.00
19292;DHT22;9779;51.756;7.450;2024-02-23T09:34:26;6.70;1.00
19292;DHT22;9779;51.756;7.450;2024-02-23T09:36:52;6.70;1.00
19292;DHT22;9779;51.756;7.450;2024-02-23T09:39:18;6.70;1.00
19292;DHT22;9779;51.756;7.450;2024-02-23T09:41:43;6.80;1.00
19292;DHT22;9779;51.756;7.450;2024-02-23T09:44:09;6.80;1.00
19292;DHT22;9779;51.756;7.450;2024-02-23T09:46:37;6.80;1.00
19292;DHT22;9779;51.756;7.450;2024-02-23T09:49:03;6.80;1.00
19292;DHT22;9779;51.756;7.450;2024-02-23T09:51:32;6.80;1.00
19292;DHT22;9779;51.756;7.450;2024-02-23T09:53:58;6.80;1.00
19292;DHT22;9779;51.756;7.450;2024-02-23T09:56:27;6.80;1.00
19292;DHT22;9779;51.756;7.450;2024-02-23T09:58:54;6.80;99.90
19292;DHT22;9779;51.756;7.450;2024-02-23T10:01:29;6.80;1.00
19292;DHT22;9779;51.756;7.450;2024-02-23T10:04:02;6.90;1.00
19292;DHT22;9779;51.756;7.450;2024-02-23T10:06:31;6.90;99.90
19292;DHT22;9779;51.756;7.450;2024-02-23T10:08:57;6.90;1.00
19292;DHT22;9779;51.756;7.450;2024-02-23T10:11:24;6.90;1.00
19292;DHT22;9779;51.756;7.450;2024-02-23T10:13:50;6.90;1.00
19292;DHT22;9779;51.756;7.450;2024-02-23T10:16:17;7.00;1.00
19292;DHT22;9779;51.756;7.450;2024-02-23T10:18:46;7.00;1.00
19292;DHT22;9779;51.756;7.450;2024-02-23T10:21:12;7.00;1.00
19292;DHT22;9779;51.756;7.450;2024-02-23T10:23:38;7.00;1.00
19292;DHT22;9779;51.756;7.450;2024-02-23T10:26:05;7.00;1.00
19292;DHT22;9779;51.756;7.450;2024-02-23T10:28:34;7.00;99.90
19292;DHT22;9779;51.756;7.450;2024-02-23T10:31:00;7.00;99.90
19292;DHT22;9779;51.756;7.450;2024-02-23T10:33:27;7.00;99.90
19292;DHT22;9779;51.756;7.450;2024-02-23T10:35:56;7.00;99.90
19292;DHT22;9779;51.756;7.450;2024-02-23T10:38:26;7.00;99.90
19292;DHT22;9779;51.756;7.450;2024-02-23T10:40:55;7.00;99.90
19292;DHT22;9779;51.756;7.450;2024-02-23T10:43:36;7.10;99.90
19292;DHT22;9779;51.756;7.450;2024-02-23T10:46:06;7.10;99.90
19292;DHT22;9779;51.756;7.450;2024-02-23T10:48:36;7.10;99.90
19292;DHT22;9779;51.756;7.450;2024-02-23T10:51:02;7.10;99.90
19292;DHT22;9779;51.756;7.450;2024-02-23T10:53:31;7.10;99.90
19292;DHT22;9779;51.756;7.450;2024-02-23T10:55:57;7.20;99.90
19292;DHT22;9779;51.756;7.450;2024-02-23T10:58:25;7.20;99.90
19292;DHT22;9779;51.756;7.450;2024-02-23T11:00:51;7.20;99.90
19292;DHT22;9779;51.756;7.450;2024-02-23T11:03:18;7.20;99.90
19292;DHT22;9779;51.756;7.450;2024-02-23T11:05:47;7.30;99.90
19292;DHT22;9779;51.756;7.450;2024-02-23T11:08:17;7.30;99.90
19292;DHT22;9779;51.756;7.450;2024-02-23T11:10:50;7.30;99.90
19292;DHT22;9779;51.756;7.450;2024-02-23T11:13:17;7.30;99.90
19292;DHT22;9779;51.756;7.450;2024-02-23T11:15:43;7.40;99.90
19292;DHT22;9779;51.756;7.450;2024-02-23T11:18:35;7.40;99.90
19292;DHT22;9779;51.756;7.450;2024-02-23T11:21:03;7.40;99.90
19292;DHT22;9779;51.756;7.450;2024-02-23T11:24:02;7.40;99.90
19292;DHT22;9779;51.756;7.450;2024-02-23T11:26:28;7.50;99.90
19292;DHT22;9779;51.756;7.450;2024-02-23T11:28:54;7.50;99.90
19292;DHT22;9779;51.756;7.450;2024-02-23T11:31:24;7.50;99.90
19292;DHT22;9779;51.756;7.450;2024-02-23T11:33:56;7.50;99.90
19292;DHT22;9779;51.756;7.450;2024-02-23T11:36:35;7.50;99.90
19292;DHT22;9779;51.756;7.450;2024-02-23T11:39:03;7.60;99.90
19292;DHT22;9779;51.756;7.450;2024-02-23T11:41:29;7.60;99.90
19292;DHT22;9779;51.756;7.450;2024-02-23T11:43:56;7.60;56.00
19292;DHT22;9779;51.756;7.450;2024-02-23T11:46:22;7.60;1.00
19292;DHT22;9779;51.756;7.450;2024-02-23T11:48:48;7.60;22.90
19292;DHT22;9779;51.756;7.450;2024-02-23T11:51:20;7.60;35.60
19292;DHT22;9779;51.756;7.450;2024-02-23T11:53:46;7.70;1.00
19292;DHT22;9779;51.756;7.450;2024-02-23T11:56:13;7.70;1.00
19292;DHT22;9779;51.756;7.450;2024-02-23T11:58:39;7.70;1.00
19292;DHT22;9779;51.756;7.450;2024-02-23T12:01:05;7.70;1.00
19292;DHT22;9779;51.756;7.450;2024-02-23T12:03:32;7.80;1.00
19292;DHT22;9779;51.756;7.450;2024-02-23T12:05:58;7.80;1.00
19292;DHT22;9779;51.756;7.450;2024-02-23T12:08:27;7.80;1.00
19292;DHT22;9779;51.756;7.450;2024-02-23T12:10:55;7.80;1.00
19292;DHT22;9779;51.756;7.450;2024-02-23T12:13:20;7.80;1.00
19292;DHT22;9779;51.756;7.450;2024-02-23T12:15:47;7.80;1.00
19292;DHT22;9779;51.756;7.450;2024-02-23T12:18:13;7.80;1.00
19292;DHT22;9779;51.756;7.450;2024-02-23T12:20:40;7.80;1.00
19292;DHT22;9779;51.756;7.450;2024-02-23T12:23:06;7.80;1.00
19292;DHT22;9779;51.756;7.450;2024-02-23T12:25:33;7.80;1.00
19292;DHT22;9779;51.756;7.450;2024-02-23T12:27:59;7.70;1.00
19292;DHT22;9779;51.756;7.450;2024-02-23T12:30:30;7.70;1.00
19292;DHT22;9779;51.756;7.450;2024-02-23T12:33:04;7.70;1.00
19292;DHT22;9779;51.756;7.450;2024-02-23T12:35:30;7.60;1.00
19292;DHT22;9779;51.756;7.450;2024-02-23T12:37:55;7.60;7.70
19292;DHT22;9779;51.756;7.450;2024-02-23T12:40:21;7.60;1.00
19292;DHT22;9779;51.756;7.450;2024-02-23T12:42:47;7.70;1.00
19292;DHT22;9779;51.756;7.450;2024-02-23T12:45:14;7.70;1.00
19292;DHT22;9779;51.756;7.450;2024-02-23T12:47:39;7.70;1.00
19292;DHT22;9779;51.756;7.450;2024-02-23T12:50:06;7.70;1.00
19292;DHT22;9779;51.756;7.450;2024-02-23T12:52:33;7.70;1.00
19292;DHT22;9779;51.756;7.450;2024-02-23T12:54:59;7.70;1.00
19292;DHT22;9779;51.756;7.450;2024-02-23T12:57:25;7.70;1.00
19292;DHT22;9779;51.756;7.450;2024-02-23T12:59:51;7.70;1.00
19292;DHT22;9779;51.756;7.450;2024-02-23T13:02:16;7.80;5.30
19292;DHT22;9779;51.756;7.450;2024-02-23T13:04:42;7.80;26.40
19292;DHT22;9779;51.756;7.450;2024-02-23T13:07:14;7.70;99.90
19292;DHT22;9779;51.756;7.450;2024-02-23T13:09:39;7.70;99.90
19292;DHT22;9779;51.756;7.450;2024-02-23T13:12:05;7.70;99.90
19292;DHT22;9779;51.756;7.450;2024-02-23T13:14:31;7.80;99.90
19292;DHT22;9779;51.756;7.450;2024-02-23T13:16:56;7.80;99.90
19292;DHT22;9779;51.756;7.450;2024-02-23T13:19:22;7.80;99.90
19292;DHT22;9779;51.756;7.450;2024-02-23T13:21:47;7.80;99.90
19292;DHT22;9779;51.756;7.450;2024-02-23T13:24:13;7.80;99.90
19292;DHT22;9779;51.756;7.450;2024-02-23T13:26:38;7.80;99.90
19292;DHT22;9779;51.756;7.450;2024-02-23T13:29:04;7.80;99.90
19292;DHT22;9779;51.756;7.450;2024-02-23T13:31:30;7.80;66.30
19292;DHT22;9779;51.756;7.450;2024-02-23T13:33:55;7.90;59.40
19292;DHT22;9779;51.756;7.450;2024-02-23T13:36:21;7.90;22.10
19292;DHT22;9779;51.756;7.450;2024-02-23T13:38:46;8.00;52.70
19292;DHT22;9779;51.756;7.450;2024-02-23T13:41:12;8.00;71.70
19292;DHT22;9779;51.756;7.450;2024-02-23T13:43:38;8.00;8.00
19292;DHT22;9779;51.756;7.450;2024-02-23T13:46:04;8.00;1.00
19292;DHT22;9779;51.756;7.450;2024-02-23T13:48:30;8.00;16.60
19292;DHT22;9779;51.756;7.450;2024-02-23T13:50:56;8.00;99.90
19292;DHT22;9779;51.756;7.450;2024-02-23T13:53:22;7.90;99.90
19292;DHT22;9779;51.756;7.450;2024-02-23T13:55:47;7.80;99.90
19292;DHT22;9779;51.756;7.450;2024-02-23T13:58:13;7.80;1.00
19292;DHT22;9779;51.756;7.450;2024-02-23T14:00:39;7.70;1.00
19292;DHT22;9779;51.756;7.450;2024-02-23T14:03:04;7.70;1.00
19292;DHT22;9779;51.756;7.450;2024-02-23T14:05:30;7.70;1.00
19292;DHT22;9779;51.756;7.450;2024-02-23T14:07:55;7.70;1.00
19292;DHT22;9779;51.756;7.450;2024-02-23T14:10:21;7.70;1.00
19292;DHT22;9779;51.756;7.450;2024-02-23T14:12:47;7.70;1.00
19292;DHT22;9779;51.756;7.450;2024-02-23T14:15:12;7.70;1.00
19292;DHT22;9779;51.756;7.450;2024-02-23T14:17:38;7.70;1.00
19292;DHT22;9779;51.756;7.450;2024-02-23T14:20:04;7.60;99.90
19292;DHT22;9779;51.756;7.450;2024-02-23T14:22:31;7.60;1.00
19292;DHT22;9779;51.756;7.450;2024-02-23T14:24:57;7.60;1.00
19292;DHT22;9779;51.756;7.450;2024-02-23T14:27:24;7.60;1.00
19292;DHT22;9779;51.756;7.450;2024-02-23T14:29:49;7.60;99.90
19292;DHT22;9779;51.756;7.450;2024-02-23T14:32:16;7.60;99.90
19292;DHT22;9779;51.756;7.450;2024-02-23T14:34:42;7.60;1.00
19292;DHT22;9779;51.756;7.450;2024-02-23T14:37:08;7.60;1.00
19292;DHT22;9779;51.756;7.450;2024-02-23T14:39:34;7.60;1.00
19292;DHT22;9779;51.756;7.450;2024-02-23T14:42:00;7.60;1.00
19292;DHT22;9779;51.756;7.450;2024-02-23T14:44:26;7.50;1.00
19292;DHT22;9779;51.756;7.450;2024-02-23T14:46:52;7.60;99.90
19292;DHT22;9779;51.756;7.450;2024-02-23T14:49:17;7.60;18.50
19292;DHT22;9779;51.756;7.450;2024-02-23T14:51:43;7.60;1.00
19292;DHT22;9779;51.756;7.450;2024-02-23T14:54:11;7.60;1.00
19292;DHT22;9779;51.756;7.450;2024-02-23T14:56:37;7.60;99.90
19292;DHT22;9779;51.756;7.450;2024-02-23T14:59:03;7.60;99.90
19292;DHT22;9779;51.756;7.450;2024-02-23T15:01:28;7.60;99.90
19292;DHT22;9779;51.756;7.450;2024-02-23T15:03:54;7.60;12.70
19292;DHT22;9779;51.756;7.450;2024-02-23T15:06:20;7.60;99.90
19292;DHT22;9779;51.756;7.450;2024-02-23T15:08:48;7.60;99.90
19292;DHT22;9779;51.756;7.450;2024-02-23T15:11:13;7.70;99.90
19292;DHT22;9779;51.756;7.450;2024-02-23T15:13:39;7.70;99.90
19292;DHT22;9779;51.756;7.450;2024-02-23T15:16:06;7.70;99.90
19292;DHT22;9779;51.756;7.450;2024-02-23T15:18:31;7.70;99.90
19292;DHT22;9779;51.756;7.450;2024-02-23T15:20:57;7.70;99.90
19292;DHT22;9779;51.756;7.450;2024-02-23T15:23:23;7.70;1.00
19292;DHT22;9779;51.756;7.450;2024-02-23T15:25:49;8.00;1.00
19292;DHT22;9779;51.756;7.450;2024-02-23T15:28:15;8.00;1.00
19292;DHT22;9779;51.756;7.450;2024-02-23T15:30:50;8.10;1.00
19292;DHT22;9779;51.756;7.450;2024-02-23T15:33:17;8.20;1.00
19292;DHT22;9779;51.756;7.450;2024-02-23T15:35:42;8.30;1.00
19292;DHT22;9779;51.756;7.450;2024-02-23T15:38:08;8.30;99.90
19292;DHT22;9779;51.756;7.450;2024-02-23T15:40:34;8.30;99.90
19292;DHT22;9779;51.756;7.450;2024-02-23T15:42:59;8.20;99.90
19292;DHT22;9779;51.756;7.450;2024-02-23T15:45:25;8.20;84.70
19292;DHT22;9779;51.756;7.450;2024-02-23T15:47:51;8.20;99.90
19292;DHT22;9779;51.756;7.450;2024-02-23T15:50:16;8.20;99.90
19292;DHT22;9779;51.756;7.450;2024-02-23T15:52:44;8.20;1.00
19292;DHT22;9779;51.756;7.450;2024-02-23T15:55:09;8.20;1.00
19292;DHT22;9779;51.756;7.450;2024-02-23T15:57:38;8.20;1.00
19292;DHT22;9779;51.756;7.450;2024-02-23T16:00:05;8.10;1.00
19292;DHT22;9779;51.756;7.450;2024-02-23T16:02:33;8.20;1.00
19292;DHT22;9779;51.756;7.450;2024-02-23T16:05:01;8.10;1.00
19292;DHT22;9779;51.756;7.450;2024-02-23T16:07:26;8.10;1.00